createdAt,value
2017-09-10T08:01:55.172Z,7044
2017-09-10T08:03:17.655Z,7304
2017-09-10T08:04:39.801Z,7160
2017-09-10T08:06:01.999Z,7244
2017-09-10T08:07:24.509Z,7316
2017-09-10T08:08:46.419Z,7068
2017-09-10T08:10:08.737Z,7164
2017-09-10T08:11:31.381Z,7116
2017-09-10T08:12:53.881Z,6892
2017-09-10T08:14:15.793Z,6976
2017-09-10T08:15:37.953Z,7004
2017-09-10T08:16:59.763Z,6988
2017-09-10T08:18:22.362Z,7056
2017-09-10T08:19:44.171Z,6820
2017-09-10T08:21:05.971Z,6936
2017-09-10T08:22:27.862Z,6760
2017-09-10T08:23:49.997Z,6748
2017-09-10T08:25:12.226Z,6868
2017-09-10T08:26:34.701Z,6756
2017-09-10T08:27:56.223Z,6664
2017-09-10T08:29:19.072Z,6724
2017-09-10T08:30:41.579Z,6608
2017-09-10T08:32:04.080Z,6560
2017-09-10T08:33:25.573Z,6560
2017-09-10T08:34:47.851Z,6552
2017-09-10T08:36:10.348Z,6632
2017-09-10T08:37:32.221Z,6528
2017-09-10T08:38:54.354Z,6524
2017-09-10T08:40:16.440Z,6488
2017-09-10T08:41:38.942Z,6524
2017-09-10T08:43:00.444Z,6476
2017-09-10T08:44:21.964Z,6560
2017-09-10T08:45:44.460Z,6588
2017-09-10T08:47:05.655Z,6536
2017-09-10T08:48:27.219Z,6576
2017-09-10T08:49:49.439Z,6664
2017-09-10T08:51:11.974Z,6676
2017-09-10T08:52:34.422Z,6688
2017-09-10T08:53:56.581Z,6524
2017-09-10T08:55:19.040Z,6496
2017-09-10T08:56:41.238Z,6616
2017-09-10T08:58:02.803Z,6608
2017-09-10T08:59:24.642Z,6480
2017-09-10T09:00:47.197Z,6604
2017-09-10T09:02:09.621Z,6264
2017-09-10T09:03:32.093Z,6708
2017-09-10T09:04:53.967Z,6992
2017-09-10T09:06:16.221Z,6860
2017-09-10T09:07:39.120Z,6804
2017-09-10T09:09:01.613Z,6880
2017-09-10T09:10:23.768Z,6564
2017-09-10T09:11:45.914Z,6196
2017-09-10T09:13:08.822Z,7628
2017-09-10T09:14:31.338Z,7848
2017-09-10T09:15:53.196Z,7620
2017-09-10T09:17:15.683Z,7064
2017-09-10T09:18:37.595Z,9112
2017-09-10T09:19:59.812Z,8604
2017-09-10T09:21:21.643Z,7760
2017-09-10T09:22:43.802Z,6808
2017-09-10T09:24:06.305Z,6844
2017-09-10T09:25:28.133Z,6848
2017-09-10T09:26:50.605Z,6708
2017-09-10T09:28:13.073Z,7072
2017-09-10T09:29:35.263Z,6792
2017-09-10T09:30:57.408Z,7748
2017-09-10T09:32:19.945Z,6700
2017-09-10T09:33:41.773Z,6844
2017-09-10T09:35:04.597Z,6516
2017-09-10T09:36:26.783Z,6480
2017-09-10T09:37:48.625Z,6412
2017-09-10T09:39:10.462Z,6464
2017-09-10T09:40:32.994Z,7516
2017-09-10T09:41:55.160Z,6664
2017-09-10T09:43:17.299Z,6364
2017-09-10T09:44:39.459Z,6360
2017-09-10T09:46:02.302Z,6368
2017-09-10T09:47:24.594Z,6288
2017-09-10T09:48:47.182Z,6220
2017-09-10T09:50:09.334Z,6468
2017-09-10T09:51:32.159Z,6216
2017-09-10T09:52:54.324Z,6224
2017-09-10T09:54:16.813Z,6148
2017-09-10T09:55:38.753Z,6124
2017-09-10T09:57:01.317Z,6092
2017-09-10T09:58:22.874Z,6164
2017-09-10T09:59:45.189Z,6228
2017-09-10T10:01:07.729Z,6240
2017-09-10T10:02:30.536Z,6320
2017-09-10T10:03:53.088Z,6048
2017-09-10T10:05:15.265Z,5932
2017-09-10T10:06:37.534Z,5964
2017-09-10T10:07:59.308Z,5984
2017-09-10T10:09:21.204Z,6084
2017-09-10T10:10:43.038Z,6052
2017-09-10T10:12:05.235Z,5856
2017-09-10T10:13:27.995Z,6472
2017-09-10T10:14:50.146Z,6192
2017-09-10T10:16:12.425Z,6544
2017-09-10T10:17:34.595Z,7044
2017-09-10T10:18:56.845Z,6900
2017-09-10T10:20:18.714Z,6456
2017-09-10T10:21:40.887Z,6688
2017-09-10T10:23:03.047Z,6592
2017-09-10T10:24:25.462Z,6564
2017-09-10T10:25:47.297Z,6640
2017-09-10T10:27:09.795Z,9600
2017-09-10T10:28:32.392Z,8168
2017-09-10T10:29:54.856Z,8336
2017-09-10T10:31:16.713Z,12588
2017-09-10T10:32:38.534Z,14684
2017-09-10T10:34:00.707Z,10452
2017-09-10T10:35:23.145Z,13060
2017-09-10T10:36:45.615Z,13420
2017-09-10T10:38:08.097Z,12816
2017-09-10T10:39:30.267Z,14112
2017-09-10T10:40:52.794Z,10048
2017-09-10T10:42:14.952Z,10248
2017-09-10T10:43:37.444Z,13192
2017-09-10T10:44:59.953Z,13576
2017-09-10T10:46:22.034Z,12184
2017-09-10T10:47:43.587Z,9904
2017-09-10T10:49:06.071Z,9364
2017-09-10T10:50:28.215Z,10236
2017-09-10T10:51:50.739Z,8784
2017-09-10T10:53:13.456Z,9456
2017-09-10T10:54:35.915Z,10676
2017-09-10T10:55:57.444Z,9344
2017-09-10T10:57:19.450Z,10784
2017-09-10T10:58:41.616Z,9560
2017-09-10T11:00:03.592Z,11264
2017-09-10T11:01:25.844Z,14500
2017-09-10T11:02:48.365Z,10712
2017-09-10T11:04:10.573Z,10652
2017-09-10T11:05:32.845Z,11648
2017-09-10T11:06:55.342Z,11364
2017-09-10T11:08:17.853Z,16288
2017-09-10T11:09:39.685Z,13920
2017-09-10T11:11:02.172Z,11868
2017-09-10T11:12:24.038Z,11856
2017-09-10T11:13:46.634Z,8136
2017-09-10T11:15:07.835Z,7724
2017-09-10T11:16:30.335Z,8068
2017-09-10T11:17:52.977Z,7944
2017-09-10T11:19:16.233Z,10512
2017-09-10T11:20:38.465Z,12704
2017-09-10T11:22:01.013Z,12736
2017-09-10T11:23:23.162Z,12252
2017-09-10T11:24:45.988Z,13944
2017-09-10T11:26:08.154Z,12860
2017-09-10T11:27:30.640Z,12344
2017-09-10T11:28:52.869Z,11936
2017-09-10T11:30:15.415Z,9372
2017-09-10T11:31:37.586Z,9784
2017-09-10T11:33:00.086Z,8116
2017-09-10T11:34:21.934Z,11124
2017-09-10T11:35:44.766Z,13652
2017-09-10T11:37:07.262Z,13080
2017-09-10T11:38:29.743Z,10140
2017-09-10T11:39:51.934Z,11832
2017-09-10T11:41:14.397Z,10224
2017-09-10T11:42:36.552Z,9716
2017-09-10T11:43:58.520Z,9548
2017-09-10T11:45:20.745Z,7396
2017-09-10T11:46:42.960Z,9800
2017-09-10T11:48:05.453Z,11924
2017-09-10T11:49:27.416Z,11148
2017-09-10T11:50:49.320Z,11552
2017-09-10T11:52:12.057Z,10772
2017-09-10T11:53:34.521Z,9116
2017-09-10T11:54:56.034Z,7860
2017-09-10T11:56:18.507Z,7752
2017-09-10T11:57:41.344Z,7744
2017-09-10T11:59:03.835Z,7952
2017-09-10T12:00:26.517Z,9768
2017-09-10T12:01:49.024Z,11756
2017-09-10T12:03:11.184Z,8960
2017-09-10T12:04:33.333Z,7268
2017-09-10T12:05:55.166Z,6252
2017-09-10T12:07:17.314Z,6232
2017-09-10T12:08:40.125Z,6932
2017-09-10T12:10:02.326Z,8656
2017-09-10T12:11:24.813Z,7048
2017-09-10T12:12:46.974Z,6748
2017-09-10T12:14:08.850Z,6696
2017-09-10T12:15:31.020Z,6724
2017-09-10T12:16:53.252Z,6584
2017-09-10T12:18:15.556Z,6344
2017-09-10T12:19:37.490Z,6232
2017-09-10T12:21:00.148Z,6456
2017-09-10T12:22:22.714Z,10272
2017-09-10T12:23:44.610Z,11976
2017-09-10T12:25:07.020Z,9288
2017-09-10T12:26:28.845Z,9224
2017-09-10T12:27:51.008Z,9020
2017-09-10T12:29:12.846Z,6820
2017-09-10T12:30:35.683Z,6248
2017-09-10T12:31:57.865Z,6504
2017-09-10T12:33:20.363Z,9104
2017-09-10T12:34:42.528Z,9904
2017-09-10T12:36:04.761Z,11124
2017-09-10T12:37:26.945Z,10416
2017-09-10T12:38:49.164Z,9980
2017-09-10T12:40:11.446Z,12092
2017-09-10T12:41:34.265Z,11156
2017-09-10T12:42:56.774Z,12948
2017-09-10T12:44:18.984Z,11252
2017-09-10T12:45:41.016Z,11492
2017-09-10T12:47:04.017Z,11600
2017-09-10T12:48:26.496Z,8972
2017-09-10T12:49:48.468Z,8884
2017-09-10T12:51:10.645Z,9024
2017-09-10T12:52:33.414Z,8584
2017-09-10T12:53:55.606Z,8896
2017-09-10T12:55:17.461Z,7536
2017-09-10T12:56:39.435Z,8564
2017-09-10T12:58:02.256Z,7480
2017-09-10T12:59:24.563Z,6500
2017-09-10T13:00:46.409Z,8420
2017-09-10T13:02:09.083Z,8004
2017-09-10T13:03:31.536Z,8388
2017-09-10T13:04:54.155Z,8560
2017-09-10T13:06:16.442Z,7972
2017-09-10T13:07:38.940Z,9884
2017-09-10T13:09:01.440Z,12504
2017-09-10T13:10:23.595Z,8880
2017-09-10T13:11:46.119Z,6808
2017-09-10T13:13:07.968Z,7440
2017-09-10T13:14:30.802Z,7676
2017-09-10T13:15:53.285Z,9096
2017-09-10T13:17:15.451Z,8824
2017-09-10T13:18:37.011Z,8244
2017-09-10T13:19:59.758Z,6896
2017-09-10T13:21:21.712Z,8088
2017-09-10T13:22:44.284Z,7684
2017-09-10T13:24:06.116Z,7348
2017-09-10T13:25:28.373Z,8836
2017-09-10T13:26:50.551Z,10272
2017-09-10T13:28:13.045Z,12228
2017-09-10T13:29:35.265Z,10656
2017-09-10T13:30:58.118Z,11952
2017-09-10T13:32:20.615Z,8748
2017-09-10T13:33:43.142Z,7160
2017-09-10T13:35:05.305Z,6980
2017-09-10T13:36:27.768Z,8224
2017-09-10T13:37:49.596Z,9120
2017-09-10T13:39:11.804Z,9788
2017-09-10T13:40:33.313Z,12540
2017-09-10T13:41:55.775Z,12828
2017-09-10T13:43:18.047Z,9844
2017-09-10T13:44:40.523Z,9096
2017-09-10T13:46:02.527Z,9052
2017-09-10T13:47:25.052Z,8068
2017-09-10T13:48:46.995Z,6492
2017-09-10T13:50:09.181Z,6052
2017-09-10T13:51:31.664Z,8184
2017-09-10T13:52:54.134Z,11712
2017-09-10T13:54:16.634Z,13660
2017-09-10T13:55:38.894Z,9536
2017-09-10T13:57:01.392Z,8792
2017-09-10T13:58:23.863Z,9204
2017-09-10T13:59:46.033Z,11504
2017-09-10T14:01:08.622Z,8956
2017-09-10T14:02:31.095Z,8136
2017-09-10T14:03:54.014Z,7484
2017-09-10T14:05:16.514Z,10928
2017-09-10T14:06:38.999Z,12000
2017-09-10T14:08:01.004Z,10508
2017-09-10T14:09:23.557Z,8132
2017-09-10T14:10:45.405Z,7412
2017-09-10T14:12:06.965Z,6464
2017-09-10T14:13:29.463Z,7724
2017-09-10T14:14:51.683Z,9608
2017-09-10T14:16:14.292Z,11040
2017-09-10T14:17:36.782Z,10356
2017-09-10T14:18:59.334Z,11856
2017-09-10T14:20:22.174Z,9384
2017-09-10T14:21:44.684Z,11448
2017-09-10T14:23:06.839Z,9816
2017-09-10T14:24:29.098Z,9240
2017-09-10T14:25:51.654Z,7688
2017-09-10T14:27:14.122Z,6776
2017-09-10T14:28:36.622Z,6420
2017-09-10T14:29:58.185Z,6276
2017-09-10T14:31:21.131Z,6056
2017-09-10T14:32:43.626Z,7708
2017-09-10T14:34:06.159Z,8860
2017-09-10T14:35:28.323Z,10324
2017-09-10T14:36:51.503Z,8532
2017-09-10T14:38:13.700Z,8164
2017-09-10T14:39:35.890Z,8876
2017-09-10T14:40:58.073Z,9136
2017-09-10T14:42:20.600Z,9376
2017-09-10T14:43:42.850Z,9428
2017-09-10T14:45:04.724Z,8184
2017-09-10T14:46:27.214Z,6740
2017-09-10T14:47:50.030Z,6892
2017-09-10T14:49:12.527Z,7300
2017-09-10T14:50:34.720Z,8520
2017-09-10T14:51:56.904Z,8300
2017-09-10T14:53:19.543Z,8316
2017-09-10T14:54:42.034Z,8332
2017-09-10T14:56:04.521Z,9116
2017-09-10T14:57:27.101Z,9472
2017-09-10T14:58:49.602Z,11092
2017-09-10T15:00:11.909Z,9888
2017-09-10T15:01:34.404Z,9024
2017-09-10T15:02:56.562Z,8196
2017-09-10T15:04:19.053Z,7800
2017-09-10T15:05:41.281Z,7832
2017-09-10T15:07:03.466Z,7976
2017-09-10T15:08:25.642Z,7516
2017-09-10T15:09:48.046Z,7356
2017-09-10T15:11:10.532Z,7120
2017-09-10T15:12:33.023Z,6352
2017-09-10T15:13:55.504Z,7000
2017-09-10T15:15:18.332Z,7176
2017-09-10T15:16:40.512Z,7672
2017-09-10T15:18:02.491Z,7636
2017-09-10T15:19:24.340Z,8288
2017-09-10T15:20:46.905Z,8540
2017-09-10T15:22:09.432Z,8652
2017-09-10T15:23:31.910Z,8856
2017-09-10T15:24:53.745Z,8044
2017-09-10T15:26:16.594Z,7000
2017-09-10T15:27:38.902Z,6812
2017-09-10T15:29:01.192Z,6828
2017-09-10T15:30:23.023Z,7260
2017-09-10T15:31:46.004Z,7516
2017-09-10T15:33:08.595Z,7300
2017-09-10T15:34:30.749Z,6996
2017-09-10T15:35:53.414Z,6576
2017-09-10T15:37:15.955Z,6300
2017-09-10T15:38:38.139Z,6036
2017-09-10T15:40:00.347Z,6096
2017-09-10T15:41:22.807Z,5760
2017-09-10T15:42:45.327Z,5408
2017-09-10T15:44:07.814Z,5384
2017-09-10T15:45:29.680Z,5584
2017-09-10T15:46:51.919Z,5648
2017-09-10T15:48:14.847Z,5564
2017-09-10T15:49:37.330Z,5344
2017-09-10T15:50:59.632Z,4896
2017-09-10T15:52:22.132Z,4584
2017-09-10T15:53:44.952Z,4684
2017-09-10T15:55:07.454Z,4956
2017-09-10T15:56:29.632Z,5192
2017-09-10T15:57:52.119Z,5044
2017-09-10T15:59:14.619Z,5192
2017-09-10T16:00:36.819Z,5024
2017-09-10T16:01:59.313Z,4924
2017-09-10T16:03:21.835Z,5096
2017-09-10T16:04:44.031Z,5044
2017-09-10T16:06:06.006Z,4552
2017-09-10T16:07:28.213Z,4276
2017-09-10T16:08:50.921Z,4116
2017-09-10T16:10:13.683Z,4188
2017-09-10T16:11:36.178Z,4176
2017-09-10T16:12:58.382Z,4004
2017-09-10T16:14:20.623Z,4364
2017-09-10T16:15:42.711Z,4352
2017-09-10T16:17:04.885Z,4292
2017-09-10T16:18:27.083Z,4128
2017-09-10T16:19:48.948Z,3944
2017-09-10T16:21:11.782Z,3444
2017-09-10T16:22:33.653Z,2944
2017-09-10T16:23:56.295Z,2704
2017-09-10T16:25:18.838Z,2576
2017-09-10T16:26:41.175Z,2372
2017-09-10T16:28:03.672Z,2440
2017-09-10T16:29:25.833Z,2704
2017-09-10T16:30:48.346Z,3064
2017-09-10T16:32:10.570Z,3340
2017-09-10T16:33:32.400Z,3576
2017-09-10T16:34:54.672Z,3420
2017-09-10T16:36:17.183Z,3132
2017-09-10T16:37:40.248Z,2820
2017-09-10T16:39:02.409Z,2656
2017-09-10T16:40:24.253Z,2260
2017-09-10T16:41:46.422Z,1948
2017-09-10T16:43:09.181Z,1984
2017-09-10T16:44:31.668Z,2064
2017-09-10T16:45:54.161Z,2076
2017-09-10T16:47:16.316Z,1944
2017-09-10T16:48:38.852Z,1828
2017-09-10T16:50:01.011Z,1808
2017-09-10T16:51:22.213Z,1740
2017-09-10T16:52:44.721Z,1452
2017-09-10T16:54:07.230Z,1064
2017-09-10T16:55:28.811Z,844
2017-09-10T16:56:50.741Z,784
2017-09-10T16:58:12.927Z,784
2017-09-10T16:59:35.503Z,880
2017-09-10T17:00:58.025Z,1064
2017-09-10T17:02:20.287Z,1272
2017-09-10T17:03:42.832Z,1272
2017-09-10T17:05:05.357Z,1212
2017-09-10T17:06:27.522Z,1176
2017-09-10T17:07:50.072Z,1144
2017-09-10T17:09:12.592Z,1120
2017-09-10T17:10:35.355Z,1080
2017-09-10T17:11:57.516Z,1052
2017-09-10T17:13:19.682Z,1016
2017-09-10T17:14:42.171Z,1020
2017-09-10T17:16:04.588Z,1136
2017-09-10T17:17:26.441Z,1148
2017-09-10T17:18:48.822Z,1072
2017-09-10T17:20:11.358Z,904
2017-09-10T17:21:34.278Z,824
2017-09-10T17:22:56.102Z,760
2017-09-10T17:24:18.290Z,656
2017-09-10T17:25:40.493Z,556
2017-09-10T17:27:03.002Z,484
2017-09-10T17:28:25.417Z,452
2017-09-10T17:29:47.762Z,400
2017-09-10T17:31:10.025Z,364
2017-09-10T17:32:32.795Z,360
2017-09-10T17:33:55.312Z,340
2017-09-10T17:35:17.844Z,312
2017-09-10T17:36:40.030Z,296
2017-09-10T17:38:02.619Z,300
2017-09-10T17:39:25.212Z,296
2017-09-10T17:40:47.133Z,268
2017-09-10T17:42:09.307Z,236
2017-09-10T17:43:31.799Z,208
2017-09-10T17:44:54.349Z,184
2017-09-10T17:46:16.946Z,180
2017-09-10T17:47:39.471Z,172
2017-09-10T17:49:01.984Z,156
2017-09-10T17:50:24.483Z,148
2017-09-10T17:51:47.021Z,140
2017-09-10T17:53:09.273Z,128
2017-09-10T17:54:31.793Z,112
2017-09-10T17:55:54.302Z,92
2017-09-10T17:57:16.785Z,76
2017-09-10T17:58:39.061Z,56
2017-09-10T18:00:01.652Z,44
2017-09-10T18:01:24.145Z,36
2017-09-10T18:02:46.642Z,24
2017-09-10T18:04:08.807Z,20
2017-09-10T18:05:31.306Z,20
2017-09-10T18:06:53.137Z,16
2017-09-10T18:08:15.680Z,12
2017-09-10T18:09:38.231Z,12
2017-09-10T18:10:59.981Z,8
2017-09-10T18:12:22.151Z,4
2017-09-10T18:13:44.632Z,4
2017-09-10T18:15:06.823Z,4
2017-09-10T18:16:29.377Z,0
2017-09-10T18:17:51.333Z,0
2017-09-10T18:19:13.182Z,0
2017-09-10T18:20:35.229Z,0
2017-09-10T18:21:58.042Z,0
2017-09-10T18:23:19.901Z,0
2017-09-10T18:24:42.072Z,0
2017-09-10T18:26:04.574Z,0
2017-09-10T18:27:27.400Z,0
2017-09-10T18:28:49.242Z,0
2017-09-10T18:30:11.734Z,0
2017-09-10T18:31:34.324Z,0
2017-09-10T18:32:57.158Z,0
2017-09-10T18:34:19.338Z,0
2017-09-10T18:35:41.855Z,0
2017-09-10T18:37:04.044Z,0
2017-09-10T18:38:26.890Z,0
2017-09-10T18:39:49.405Z,0
2017-09-10T18:41:11.963Z,0
2017-09-10T18:42:34.476Z,0
2017-09-10T18:43:56.995Z,0
2017-09-10T18:45:19.496Z,0
2017-09-10T18:46:42.121Z,0
2017-09-10T18:48:04.627Z,0
2017-09-10T18:49:27.414Z,0
2017-09-10T18:50:49.601Z,0
2017-09-10T18:52:11.781Z,0
2017-09-10T18:53:34.046Z,0
2017-09-10T18:54:56.884Z,0
2017-09-10T18:56:18.767Z,0
2017-09-10T18:57:40.937Z,0
2017-09-10T18:59:03.113Z,0
2017-09-10T19:00:25.952Z,0
2017-09-10T19:01:47.792Z,0
2017-09-10T19:03:10.326Z,0
2017-09-10T19:04:32.533Z,0
2017-09-10T19:05:54.416Z,0
2017-09-10T19:07:16.894Z,0
2017-09-10T19:08:39.440Z,0
2017-09-10T19:10:01.633Z,0
2017-09-10T19:11:24.564Z,0
2017-09-10T19:12:47.130Z,0
2017-09-10T19:14:09.305Z,0
2017-09-10T19:15:31.502Z,0
2017-09-10T19:16:54.346Z,0
2017-09-10T19:18:16.832Z,0
2017-09-10T19:19:38.696Z,0
2017-09-10T19:21:00.904Z,0
2017-09-10T19:22:23.707Z,0
2017-09-10T19:23:45.248Z,0
2017-09-10T19:25:07.446Z,0
2017-09-10T19:26:29.650Z,0
2017-09-10T19:27:52.211Z,0
2017-09-10T19:29:14.455Z,0
2017-09-10T19:30:37.078Z,0
2017-09-10T19:31:59.366Z,0
2017-09-10T19:33:22.161Z,0
2017-09-10T19:34:44.674Z,0
2017-09-10T19:36:07.035Z,0
2017-09-10T19:37:29.556Z,0
2017-09-10T19:38:52.305Z,0
2017-09-10T19:40:14.506Z,0
2017-09-10T19:41:36.714Z,0
2017-09-10T19:42:59.225Z,0
2017-09-10T19:44:21.364Z,0
2017-09-10T19:45:43.614Z,0
2017-09-10T19:47:05.814Z,0
2017-09-10T19:48:28.332Z,0
2017-09-10T19:49:50.923Z,0
2017-09-10T19:51:13.163Z,0
2017-09-10T19:52:35.351Z,0
2017-09-10T19:53:57.574Z,0
2017-09-10T19:55:20.023Z,0
2017-09-10T19:56:42.599Z,0
2017-09-10T19:58:04.846Z,0
2017-09-10T19:59:27.045Z,0
2017-09-10T20:00:48.944Z,0
2017-09-10T20:02:11.643Z,0
2017-09-10T20:03:34.246Z,12
2017-09-10T20:04:56.806Z,8
2017-09-10T20:06:19.857Z,8
2017-09-10T20:07:42.050Z,8
2017-09-10T20:09:04.786Z,0
2017-09-10T20:10:27.091Z,0
2017-09-10T20:11:49.754Z,0
2017-09-10T20:13:11.955Z,0
2017-09-10T20:14:34.755Z,0
2017-09-10T20:15:57.055Z,0
2017-09-10T20:17:19.686Z,0
2017-09-10T20:18:41.561Z,0
2017-09-10T20:20:04.105Z,0
2017-09-10T20:21:26.273Z,0
2017-09-10T20:22:49.128Z,0
2017-09-10T20:24:11.686Z,0
2017-09-10T20:25:34.249Z,0
2017-09-10T20:26:56.482Z,0
2017-09-10T20:28:18.975Z,0
2017-09-10T20:29:41.165Z,0
2017-09-10T20:31:03.425Z,0
2017-09-10T20:32:25.643Z,0
2017-09-10T20:33:48.207Z,0
2017-09-10T20:35:10.853Z,0
2017-09-10T20:36:33.037Z,0
2017-09-10T20:37:55.034Z,0
2017-09-10T20:39:17.879Z,0
2017-09-10T20:40:40.443Z,0
2017-09-10T20:42:02.966Z,0
2017-09-10T20:43:25.455Z,0
2017-09-10T20:44:48.013Z,0
2017-09-10T20:46:09.857Z,0
2017-09-10T20:47:32.086Z,0
2017-09-10T20:48:54.293Z,0
2017-09-10T20:50:16.484Z,0
2017-09-10T20:51:39.072Z,0
2017-09-10T20:53:01.024Z,0
2017-09-10T20:54:23.492Z,0
2017-09-10T20:55:45.603Z,0
2017-09-10T20:57:07.464Z,0
2017-09-10T20:58:29.957Z,0
2017-09-10T20:59:52.133Z,0
2017-09-10T21:01:14.700Z,0
2017-09-10T21:02:37.202Z,0
2017-09-10T21:03:59.043Z,0
2017-09-10T21:05:21.513Z,0
2017-09-10T21:06:43.407Z,0
2017-09-10T21:08:05.893Z,0
2017-09-10T21:09:28.190Z,0
2017-09-10T21:10:50.346Z,0
2017-09-10T21:12:13.051Z,0
2017-09-10T21:13:35.534Z,0
2017-09-10T21:14:57.376Z,0
2017-09-10T21:16:19.545Z,0
2017-09-10T21:17:42.030Z,0
2017-09-10T21:19:04.266Z,0
2017-09-10T21:20:26.744Z,0
2017-09-10T21:21:48.891Z,0
2017-09-10T21:23:11.315Z,0
2017-09-10T21:24:33.136Z,0
2017-09-10T21:25:55.391Z,0
2017-09-10T21:27:17.529Z,0
2017-09-10T21:28:40.363Z,0
2017-09-10T21:30:02.525Z,0
2017-09-10T21:31:24.740Z,0
2017-09-10T21:32:47.205Z,0
2017-09-10T21:34:09.708Z,0
2017-09-10T21:35:31.516Z,0
2017-09-10T21:36:53.998Z,0
2017-09-10T21:38:15.824Z,0
2017-09-10T21:39:37.991Z,0
2017-09-10T21:41:00.474Z,0
2017-09-10T21:42:22.677Z,0
2017-09-10T21:43:44.184Z,0
2017-09-10T21:45:06.695Z,0
2017-09-10T21:46:28.604Z,0
2017-09-10T21:47:50.754Z,0
2017-09-10T21:49:12.902Z,0
2017-09-10T21:50:35.095Z,0
2017-09-10T21:51:57.247Z,0
2017-09-10T21:53:19.720Z,0
2017-09-10T21:54:41.889Z,0
2017-09-10T21:56:03.362Z,0
2017-09-10T21:57:25.185Z,0
2017-09-10T21:58:47.337Z,0
2017-09-10T22:00:08.852Z,0
2017-09-10T22:01:31.599Z,0
2017-09-10T22:02:54.093Z,0
2017-09-10T22:04:15.914Z,0
2017-09-10T22:05:38.103Z,0
2017-09-10T22:07:00.305Z,0
2017-09-10T22:08:22.815Z,0
2017-09-10T22:09:44.954Z,0
2017-09-10T22:11:07.115Z,0
2017-09-10T22:12:29.622Z,0
2017-09-10T22:13:51.896Z,0
2017-09-10T22:15:14.045Z,0
2017-09-10T22:16:36.535Z,0
2017-09-10T22:17:59.035Z,0
2017-09-10T22:19:20.885Z,0
2017-09-10T22:20:43.105Z,0
2017-09-10T22:22:05.235Z,0
2017-09-10T22:23:27.401Z,0
2017-09-10T22:24:49.545Z,0
2017-09-10T22:26:11.720Z,0
2017-09-10T22:27:33.869Z,0
2017-09-10T22:28:56.286Z,0
2017-09-10T22:30:18.122Z,0
2017-09-10T22:31:40.295Z,0
2017-09-10T22:33:01.815Z,0
2017-09-10T22:34:24.017Z,0
2017-09-10T22:35:45.876Z,0
2017-09-10T22:37:07.742Z,0
2017-09-10T22:38:29.905Z,0
2017-09-10T22:39:52.385Z,0
2017-09-10T22:41:14.530Z,0
2017-09-10T22:42:36.028Z,0
2017-09-10T22:43:58.173Z,0
2017-09-10T22:45:20.092Z,0
2017-09-10T22:46:41.928Z,0
2017-09-10T22:48:04.391Z,0
2017-09-10T22:49:26.226Z,0
2017-09-10T22:50:48.625Z,0
2017-09-10T22:52:11.166Z,0
2017-09-10T22:53:32.984Z,0
2017-09-10T22:54:55.114Z,0
2017-09-10T22:56:17.419Z,0
2017-09-10T22:57:39.235Z,0
2017-09-10T22:59:01.425Z,0
2017-09-10T23:00:23.346Z,0
2017-09-10T23:01:45.823Z,0
2017-09-10T23:03:08.326Z,0
2017-09-10T23:04:30.761Z,0
2017-09-10T23:05:52.916Z,0
2017-09-10T23:07:15.104Z,0
2017-09-10T23:08:36.706Z,0
2017-09-10T23:09:59.285Z,0
2017-09-10T23:11:21.743Z,0
2017-09-10T23:12:43.176Z,0
2017-09-10T23:14:05.455Z,0
2017-09-10T23:15:27.584Z,0
2017-09-10T23:16:50.046Z,0
2017-09-10T23:18:12.337Z,0
2017-09-10T23:19:33.816Z,0
2017-09-10T23:20:55.955Z,0
2017-09-10T23:22:17.797Z,0
2017-09-10T23:23:40.626Z,0
2017-09-10T23:25:02.417Z,0
2017-09-10T23:26:23.912Z,0
2017-09-10T23:27:46.038Z,0
2017-09-10T23:29:08.197Z,0
2017-09-10T23:30:29.675Z,0
2017-09-10T23:31:51.822Z,0
2017-09-10T23:33:14.266Z,0
2017-09-10T23:34:37.079Z,0
2017-09-10T23:35:59.293Z,0
2017-09-10T23:37:21.211Z,0
2017-09-10T23:38:43.023Z,0
2017-09-10T23:40:04.869Z,0
2017-09-10T23:41:26.686Z,0
2017-09-10T23:42:48.890Z,0
2017-09-10T23:44:11.016Z,0
2017-09-10T23:45:33.435Z,0
2017-09-10T23:46:55.894Z,0
2017-09-10T23:48:17.723Z,0
2017-09-10T23:49:40.176Z,0
2017-09-10T23:51:02.988Z,0
2017-09-10T23:52:25.466Z,0
2017-09-10T23:53:47.708Z,0
2017-09-10T23:55:09.224Z,0
2017-09-10T23:56:31.282Z,0
2017-09-10T23:57:52.445Z,0
2017-09-10T23:59:14.265Z,0
